createdAt,value
2019-05-12T00:00:43.856Z,0.90
2019-05-12T00:03:13.771Z,1.20
2019-05-12T00:05:43.642Z,1.07
2019-05-12T00:08:13.505Z,1.10
2019-05-12T00:10:43.436Z,1.23
2019-05-12T00:13:13.382Z,1.30
2019-05-12T00:15:43.296Z,1.30
2019-05-12T00:18:13.162Z,1.40
2019-05-12T00:20:43.118Z,1.30
2019-05-12T00:23:23.831Z,1.60
2019-05-12T00:25:44.749Z,1.80
2019-05-12T00:28:14.692Z,1.63
2019-05-12T00:30:48.585Z,1.70
2019-05-12T00:33:18.059Z,1.73
2019-05-12T00:35:48.472Z,1.63
2019-05-12T00:38:18.523Z,1.80
2019-05-12T00:40:48.372Z,1.60
2019-05-12T00:43:18.835Z,1.67
2019-05-12T00:45:48.973Z,1.90
2019-05-12T00:48:19.669Z,1.73
2019-05-12T00:50:49.555Z,1.90
2019-05-12T00:53:19.432Z,1.83
2019-05-12T00:55:49.302Z,1.93
2019-05-12T00:58:19.744Z,1.93
2019-05-12T01:00:49.776Z,1.80
2019-05-12T01:03:19.768Z,2.03
2019-05-12T01:05:49.706Z,1.83
2019-05-12T01:08:19.758Z,1.90
2019-05-12T01:10:49.661Z,2.10
2019-05-12T01:13:19.597Z,1.60
2019-05-12T01:15:49.643Z,1.80
2019-05-12T01:18:19.580Z,1.80
2019-05-12T01:20:49.450Z,1.97
2019-05-12T01:23:22.890Z,2.10
2019-05-12T01:25:51.014Z,1.90
2019-05-12T01:28:21.471Z,2.20
2019-05-12T01:30:51.486Z,1.70
2019-05-12T01:33:21.406Z,2.00
2019-05-12T01:35:51.346Z,1.87
2019-05-12T01:38:21.328Z,2.00
2019-05-12T01:40:51.300Z,1.93
2019-05-12T01:43:21.458Z,1.73
2019-05-12T01:45:51.357Z,1.57
2019-05-12T01:48:21.289Z,1.93
2019-05-12T01:50:51.226Z,1.73
2019-05-12T01:53:21.107Z,2.13
2019-05-12T01:55:51.036Z,1.70
2019-05-12T01:58:21.644Z,1.93
2019-05-12T02:00:51.529Z,1.83
2019-05-12T02:03:21.460Z,1.90
2019-05-12T02:05:58.953Z,1.63
2019-05-12T02:08:30.525Z,1.70
2019-05-12T02:11:18.584Z,1.60
2019-05-12T02:13:48.759Z,2.00
2019-05-12T02:16:19.011Z,1.40
2019-05-12T02:18:49.198Z,1.90
2019-05-12T02:21:19.227Z,1.63
2019-05-12T02:23:49.128Z,1.57
2019-05-12T02:26:19.102Z,1.60
2019-05-12T02:28:48.998Z,1.73
2019-05-12T02:31:20.657Z,1.40
2019-05-12T02:33:50.482Z,1.70
2019-05-12T02:36:20.608Z,1.67
2019-05-12T02:38:50.548Z,1.60
2019-05-12T02:41:20.575Z,1.50
2019-05-12T02:43:50.509Z,1.50
2019-05-12T02:46:20.445Z,1.70
2019-05-12T02:48:50.412Z,1.63
2019-05-12T02:51:20.493Z,1.53
2019-05-12T02:53:50.870Z,1.50
2019-05-12T02:56:25.747Z,1.50
2019-05-12T02:58:55.257Z,1.43
2019-05-12T03:01:28.753Z,1.30
2019-05-12T03:04:00.311Z,1.50
2019-05-12T03:06:31.158Z,1.53
2019-05-12T03:09:07.287Z,1.50
2019-05-12T03:11:37.817Z,1.43
2019-05-12T03:14:07.833Z,1.70
2019-05-12T03:16:37.794Z,1.33
2019-05-12T03:19:08.791Z,1.40
2019-05-12T03:21:38.669Z,1.57
2019-05-12T03:24:08.607Z,1.60
2019-05-12T03:26:38.535Z,1.53
2019-05-12T03:29:08.400Z,1.40
2019-05-12T03:31:40.510Z,1.60
2019-05-12T03:34:11.351Z,1.80
2019-05-12T03:36:43.338Z,1.70
2019-05-12T03:39:14.939Z,1.70
2019-05-12T03:41:44.869Z,1.33
2019-05-12T03:44:15.327Z,1.10
2019-05-12T03:46:45.796Z,1.40
2019-05-12T03:49:15.991Z,1.23
2019-05-12T03:51:47.011Z,1.17
2019-05-12T03:54:16.953Z,1.20
2019-05-12T03:56:46.880Z,1.37
2019-05-12T03:59:16.835Z,1.30
2019-05-12T04:01:46.745Z,1.30
2019-05-12T04:04:16.723Z,1.30
2019-05-12T04:06:46.728Z,1.07
2019-05-12T04:09:16.679Z,1.47
2019-05-12T04:11:46.668Z,1.53
2019-05-12T04:14:17.688Z,1.37
2019-05-12T04:16:47.527Z,1.40
2019-05-12T04:19:17.460Z,1.10
2019-05-12T04:21:47.408Z,1.70
2019-05-12T04:24:17.277Z,1.80
2019-05-12T04:26:47.204Z,1.27
2019-05-12T04:29:17.144Z,1.77
2019-05-12T04:31:48.672Z,1.63
2019-05-12T04:34:19.282Z,1.30
2019-05-12T04:36:49.364Z,1.50
2019-05-12T04:39:19.299Z,1.60
2019-05-12T04:41:49.220Z,1.60
2019-05-12T04:44:19.170Z,1.33
2019-05-12T04:46:49.088Z,1.40
2019-05-12T04:49:19.022Z,1.23
2019-05-12T04:51:48.937Z,1.40
2019-05-12T04:54:18.882Z,1.30
2019-05-12T04:56:49.586Z,1.57
2019-05-12T04:59:19.458Z,1.60
2019-05-12T05:01:49.303Z,1.53
2019-05-12T05:04:19.284Z,1.50
2019-05-12T05:06:49.209Z,1.87
2019-05-12T05:09:19.218Z,1.80
2019-05-12T05:11:49.140Z,1.90
2019-05-12T05:14:19.074Z,1.67
2019-05-12T05:16:49.018Z,1.73
2019-05-12T05:19:18.950Z,1.63
2019-05-12T05:21:48.819Z,1.80
2019-05-12T05:24:18.728Z,1.70
2019-05-12T05:26:48.652Z,1.90
2019-05-12T05:29:18.546Z,1.83
2019-05-12T05:31:48.553Z,1.73
2019-05-12T05:34:18.492Z,1.80
2019-05-12T05:36:54.276Z,1.60
2019-05-12T05:39:20.673Z,2.00
2019-05-12T05:41:51.144Z,1.83
2019-05-12T05:44:21.227Z,1.93
2019-05-12T05:46:54.515Z,1.93
2019-05-12T05:49:23.864Z,1.90
2019-05-12T05:51:56.777Z,1.63
2019-05-12T05:54:31.216Z,1.83
2019-05-12T05:57:02.433Z,1.63
2019-05-12T05:59:33.270Z,1.37
2019-05-12T06:02:01.164Z,1.53
2019-05-12T06:04:31.150Z,1.87
2019-05-12T06:07:01.168Z,2.00
2019-05-12T06:09:31.095Z,1.67
2019-05-12T06:12:05.163Z,1.70
2019-05-12T06:14:34.217Z,2.10
2019-05-12T06:17:04.469Z,2.10
2019-05-12T06:19:35.620Z,1.80
2019-05-12T06:22:09.136Z,1.60
2019-05-12T06:24:37.147Z,1.97
2019-05-12T06:27:15.251Z,1.80
2019-05-12T06:29:38.766Z,2.30
2019-05-12T06:32:10.762Z,1.90
2019-05-12T06:34:40.265Z,2.33
2019-05-12T06:37:12.344Z,2.43
2019-05-12T06:39:43.587Z,2.70
2019-05-12T06:42:16.773Z,3.10
2019-05-12T06:44:49.059Z,2.87
2019-05-12T06:47:16.445Z,3.10
2019-05-12T06:49:48.772Z,3.53
2019-05-12T06:52:17.847Z,3.63
2019-05-12T06:54:51.173Z,3.83
2019-05-12T06:57:25.403Z,5.70
2019-05-12T06:59:52.549Z,4.80
2019-05-12T07:02:24.470Z,4.73
2019-05-12T07:04:59.406Z,4.80
2019-05-12T07:07:27.748Z,5.67
2019-05-12T07:10:08.016Z,5.10
2019-05-12T07:12:36.613Z,5.23
2019-05-12T07:15:00.750Z,6.40
2019-05-12T07:17:45.575Z,5.87
2019-05-12T07:20:14.770Z,5.60
2019-05-12T07:22:48.545Z,5.37
2019-05-12T07:25:24.524Z,5.27
2019-05-12T07:27:55.247Z,6.00
2019-05-12T07:30:31.902Z,5.87
2019-05-12T07:33:01.539Z,6.40
2019-05-12T07:35:34.237Z,5.90
2019-05-12T07:38:05.012Z,5.90
2019-05-12T07:40:37.942Z,5.67
2019-05-12T07:43:09.955Z,5.77
2019-05-12T07:45:39.647Z,5.90
2019-05-12T07:48:10.465Z,5.80
2019-05-12T07:50:44.090Z,5.80
2019-05-12T07:53:14.594Z,6.07
2019-05-12T07:55:49.356Z,5.73
2019-05-12T07:58:19.203Z,5.80
2019-05-12T08:00:48.070Z,5.50
2019-05-12T08:03:21.123Z,5.20
2019-05-12T08:05:51.436Z,5.77
2019-05-12T08:08:23.547Z,5.60
2019-05-12T08:10:55.889Z,5.63
2019-05-12T08:13:25.043Z,5.23
2019-05-12T08:15:56.457Z,5.57
2019-05-12T08:18:30.622Z,5.30
2019-05-12T08:21:00.121Z,5.47
2019-05-12T08:23:30.784Z,5.83
2019-05-12T08:26:03.763Z,5.90
2019-05-12T08:28:36.228Z,4.70
2019-05-12T08:31:04.854Z,5.77
2019-05-12T08:33:35.167Z,5.67
2019-05-12T08:36:11.295Z,4.93
2019-05-12T08:38:37.874Z,4.60
2019-05-12T08:41:07.912Z,4.70
2019-05-12T08:43:40.730Z,4.93
2019-05-12T08:46:12.158Z,4.53
2019-05-12T08:48:44.636Z,4.67
2019-05-12T08:51:19.366Z,5.53
2019-05-12T08:53:45.962Z,4.90
2019-05-12T08:56:19.783Z,4.67
2019-05-12T08:58:51.271Z,4.00
2019-05-12T09:01:20.190Z,5.07
2019-05-12T09:03:50.520Z,4.67
2019-05-12T09:06:20.644Z,4.63
2019-05-12T09:08:51.135Z,4.73
2019-05-12T09:11:21.183Z,4.60
2019-05-12T09:13:52.645Z,4.20
2019-05-12T09:16:24.385Z,3.83
2019-05-12T09:18:55.366Z,3.77
2019-05-12T09:21:31.855Z,4.03
2019-05-12T09:23:57.040Z,4.07
2019-05-12T09:26:28.647Z,3.60
2019-05-12T09:28:58.545Z,3.50
2019-05-12T09:31:29.727Z,4.13
2019-05-12T09:34:05.885Z,3.73
2019-05-12T09:36:33.608Z,3.37
2019-05-12T09:39:05.867Z,3.70
2019-05-12T09:41:42.809Z,3.70
2019-05-12T09:44:07.490Z,3.40
2019-05-12T09:46:37.804Z,3.97
2019-05-12T09:49:07.674Z,3.37
2019-05-12T09:51:41.615Z,3.20
2019-05-12T09:54:09.255Z,4.00
2019-05-12T09:56:41.190Z,3.47
2019-05-12T09:59:18.982Z,3.50
2019-05-12T10:01:45.725Z,3.70
2019-05-12T10:04:16.146Z,3.43
2019-05-12T10:06:45.973Z,4.10
2019-05-12T10:09:19.853Z,3.50
2019-05-12T10:11:53.914Z,3.83
2019-05-12T10:14:18.962Z,3.87
2019-05-12T10:16:49.877Z,3.40
2019-05-12T10:19:23.395Z,3.20
2019-05-12T10:21:55.284Z,3.10
2019-05-12T10:24:24.221Z,3.20
2019-05-12T10:26:54.293Z,3.00
2019-05-12T10:29:24.536Z,3.40
2019-05-12T10:31:54.564Z,3.20
2019-05-12T10:34:29.422Z,3.30
2019-05-12T10:36:56.072Z,3.40
2019-05-12T10:39:25.933Z,3.23
2019-05-12T10:41:55.978Z,2.93
2019-05-12T10:44:30.089Z,2.77
2019-05-12T10:46:59.025Z,2.97
2019-05-12T10:49:28.946Z,3.30
2019-05-12T10:51:58.870Z,3.20
2019-05-12T10:54:28.732Z,3.27
2019-05-12T10:56:58.676Z,3.13
2019-05-12T10:59:33.109Z,3.23
2019-05-12T11:02:00.526Z,2.90
2019-05-12T11:04:36.955Z,2.60
2019-05-12T11:07:04.511Z,3.27
2019-05-12T11:09:34.529Z,2.83
2019-05-12T11:12:05.151Z,2.93
2019-05-12T11:14:35.179Z,2.80
2019-05-12T11:17:07.689Z,2.90
2019-05-12T11:19:40.897Z,2.30
2019-05-12T11:22:09.977Z,2.30
2019-05-12T11:24:39.897Z,1.90
2019-05-12T11:27:09.831Z,2.07
2019-05-12T11:29:46.153Z,2.00
2019-05-12T11:32:11.256Z,1.80
2019-05-12T11:34:41.101Z,2.10
2019-05-12T11:37:11.126Z,2.50
2019-05-12T11:39:45.220Z,1.87
2019-05-12T11:42:13.628Z,1.87
2019-05-12T11:44:44.325Z,1.80
2019-05-12T11:47:23.791Z,1.60
2019-05-12T11:49:45.982Z,1.13
2019-05-12T11:52:19.072Z,1.30
2019-05-12T11:54:51.194Z,1.30
2019-05-12T11:57:26.251Z,1.40
2019-05-12T11:59:59.181Z,1.60
2019-05-12T12:02:26.229Z,1.83
2019-05-12T12:04:55.905Z,1.83
2019-05-12T12:07:25.834Z,1.70
2019-05-12T12:09:59.281Z,1.80
2019-05-12T12:12:27.307Z,1.63
2019-05-12T12:14:57.168Z,1.70
2019-05-12T12:17:31.141Z,2.27
2019-05-12T12:19:58.685Z,1.63
2019-05-12T12:22:29.993Z,1.23
2019-05-12T12:25:05.092Z,1.43
2019-05-12T12:27:31.681Z,1.70
2019-05-12T12:30:16.131Z,1.50
2019-05-12T12:32:34.219Z,1.60
2019-05-12T12:35:09.490Z,1.60
2019-05-12T12:37:37.557Z,1.50
2019-05-12T12:40:07.713Z,1.60
2019-05-12T12:42:43.925Z,1.60
2019-05-12T12:45:30.273Z,1.47
2019-05-12T12:48:01.868Z,1.80
2019-05-12T12:50:34.228Z,1.80
2019-05-12T12:53:03.800Z,1.70
2019-05-12T12:55:38.005Z,1.63
2019-05-12T12:58:05.441Z,1.80
2019-05-12T13:00:46.740Z,1.43
2019-05-12T13:03:06.932Z,1.60
2019-05-12T13:05:36.949Z,1.77
2019-05-12T13:08:06.896Z,1.70
2019-05-12T13:10:40.537Z,1.30
2019-05-12T13:13:08.324Z,2.10
2019-05-12T13:15:38.252Z,0.90
2019-05-12T13:18:09.228Z,1.30
2019-05-12T13:20:39.406Z,1.67
2019-05-12T13:23:09.324Z,1.50
2019-05-12T13:25:47.619Z,1.23
2019-05-12T13:28:18.472Z,1.50
2019-05-12T13:30:47.102Z,1.10
2019-05-12T13:33:18.215Z,1.63
2019-05-12T13:35:50.173Z,1.67
2019-05-12T13:38:19.660Z,1.40
2019-05-12T13:40:49.520Z,1.60
2019-05-12T13:43:19.819Z,1.83
2019-05-12T13:45:49.881Z,1.80
2019-05-12T13:48:20.181Z,1.17
2019-05-12T13:50:50.150Z,1.20
2019-05-12T13:53:20.632Z,1.50
2019-05-12T13:55:50.581Z,1.03
2019-05-12T13:58:20.577Z,1.30
2019-05-12T14:01:09.245Z,1.30
2019-05-12T14:03:23.059Z,1.30
2019-05-12T14:05:55.079Z,1.40
2019-05-12T14:08:27.375Z,1.20
2019-05-12T14:10:59.769Z,1.40
2019-05-12T14:13:29.242Z,1.27
2019-05-12T14:16:02.967Z,1.13
2019-05-12T14:18:33.048Z,0.90
2019-05-12T14:21:04.228Z,1.17
2019-05-12T14:23:34.421Z,1.27
2019-05-12T14:26:07.502Z,1.20
2019-05-12T14:28:39.376Z,1.20
2019-05-12T14:31:08.207Z,1.10
2019-05-12T14:33:39.421Z,1.07
2019-05-12T14:36:15.822Z,0.93
2019-05-12T14:38:41.191Z,1.27
2019-05-12T14:41:13.877Z,1.23
2019-05-12T14:43:47.543Z,1.20
2019-05-12T14:46:14.472Z,0.80
2019-05-12T14:48:46.470Z,1.00
2019-05-12T14:51:15.964Z,1.00
2019-05-12T14:53:48.080Z,0.87
2019-05-12T14:56:18.135Z,1.10
2019-05-12T14:58:50.354Z,1.87
2019-05-12T15:01:20.699Z,1.70
2019-05-12T15:03:50.699Z,1.20
2019-05-12T15:06:25.736Z,1.10
2019-05-12T15:08:54.059Z,1.00
2019-05-12T15:11:23.810Z,1.70
2019-05-12T15:13:54.228Z,1.23
2019-05-12T15:16:24.275Z,1.50
2019-05-12T15:18:54.288Z,1.30
2019-05-12T15:21:27.405Z,1.10
2019-05-12T15:23:55.775Z,1.10
2019-05-12T15:26:25.627Z,1.20
2019-05-12T15:28:55.590Z,1.30
2019-05-12T15:31:25.531Z,1.30
2019-05-12T15:33:55.366Z,1.10
2019-05-12T15:36:25.243Z,1.10
2019-05-12T15:38:58.733Z,1.33
2019-05-12T15:41:27.833Z,1.20
2019-05-12T15:43:57.771Z,1.30
2019-05-12T15:46:34.690Z,1.53
2019-05-12T15:48:59.287Z,1.07
2019-05-12T15:51:29.214Z,1.13
2019-05-12T15:54:06.235Z,1.00
2019-05-12T15:56:30.621Z,1.00
2019-05-12T15:59:02.599Z,1.10
2019-05-12T16:01:33.506Z,1.30
2019-05-12T16:04:03.814Z,1.10
2019-05-12T16:06:33.745Z,1.10
2019-05-12T16:09:05.844Z,1.13
2019-05-12T16:11:35.684Z,1.07
2019-05-12T16:14:05.703Z,1.17
2019-05-12T16:16:42.348Z,1.20
2019-05-12T16:19:07.116Z,1.23
2019-05-12T16:21:36.975Z,1.03
2019-05-12T16:24:11.182Z,1.20
2019-05-12T16:26:42.986Z,1.00
2019-05-12T16:29:10.100Z,1.10
2019-05-12T16:31:48.228Z,1.00
2019-05-12T16:34:13.724Z,1.00
2019-05-12T16:36:47.513Z,0.97
2019-05-12T16:39:14.660Z,0.80
2019-05-12T16:41:44.526Z,0.97
2019-05-12T16:44:21.329Z,1.17
2019-05-12T16:46:46.116Z,0.80
2019-05-12T16:49:15.967Z,1.00
2019-05-12T16:51:45.918Z,1.10
2019-05-12T16:54:16.984Z,1.30
2019-05-12T16:56:46.964Z,1.30
2019-05-12T16:59:21.775Z,1.53
2019-05-12T17:01:48.455Z,1.40
2019-05-12T17:04:18.458Z,1.07
2019-05-12T17:06:48.320Z,1.20
2019-05-12T17:09:18.172Z,1.10
2019-05-12T17:11:52.583Z,1.40
2019-05-12T17:14:23.364Z,1.00
2019-05-12T17:16:54.376Z,1.00
2019-05-12T17:19:25.127Z,0.77
2019-05-12T17:21:59.299Z,0.90
2019-05-12T17:24:27.286Z,1.30
2019-05-12T17:26:57.927Z,3.97
2019-05-12T17:29:28.951Z,1.07
2019-05-12T17:31:58.995Z,1.10
2019-05-12T17:34:29.222Z,1.13
2019-05-12T17:37:00.541Z,1.30
2019-05-12T17:39:37.355Z,1.73
2019-05-12T17:42:02.234Z,1.47
2019-05-12T17:44:36.656Z,1.23
2019-05-12T17:47:03.946Z,1.40
2019-05-12T17:49:34.966Z,1.00
2019-05-12T17:52:12.987Z,1.30
2019-05-12T17:54:36.544Z,0.93
2019-05-12T17:57:09.717Z,1.00
2019-05-12T17:59:37.963Z,0.97
2019-05-12T18:02:14.839Z,1.57
2019-05-12T18:04:39.517Z,1.13
2019-05-12T18:07:12.826Z,1.20
2019-05-12T18:09:41.064Z,1.30
2019-05-12T18:12:10.982Z,1.10
2019-05-12T18:14:46.758Z,1.40
2019-05-12T18:17:14.152Z,1.13
2019-05-12T18:19:44.487Z,1.00
2019-05-12T18:22:14.460Z,1.20
2019-05-12T18:24:49.060Z,1.20
2019-05-12T18:27:15.888Z,1.27
2019-05-12T18:29:45.867Z,1.23
2019-05-12T18:32:16.024Z,1.10
2019-05-12T18:34:46.010Z,1.23
2019-05-12T18:37:15.974Z,1.40
2019-05-12T18:39:45.907Z,1.13
2019-05-12T18:42:15.919Z,1.20
2019-05-12T18:44:45.943Z,1.13
2019-05-12T18:47:17.202Z,1.60
2019-05-12T18:49:49.963Z,1.40
2019-05-12T18:52:19.389Z,1.20
2019-05-12T18:54:52.711Z,1.40
2019-05-12T18:57:23.823Z,1.40
2019-05-12T19:00:06.437Z,1.67
2019-05-12T19:02:33.805Z,1.50
2019-05-12T19:05:05.258Z,1.20
2019-05-12T19:07:39.623Z,1.60
2019-05-12T19:10:08.905Z,1.03
2019-05-12T19:12:39.147Z,1.30
2019-05-12T19:15:15.883Z,1.20
2019-05-12T19:17:43.639Z,1.00
2019-05-12T19:20:15.040Z,1.70
2019-05-12T19:22:53.974Z,1.60
2019-05-12T19:25:19.439Z,1.70
2019-05-12T19:27:55.618Z,1.13
2019-05-12T19:30:25.298Z,1.43
2019-05-12T19:32:59.896Z,1.00
2019-05-12T19:35:26.750Z,1.20
2019-05-12T19:37:56.943Z,1.30
2019-05-12T19:40:27.020Z,1.27
2019-05-12T19:43:06.166Z,1.30
2019-05-12T19:45:28.726Z,1.50
2019-05-12T19:47:58.735Z,1.23
2019-05-12T19:50:28.667Z,1.27
2019-05-12T19:52:59.114Z,1.33
2019-05-12T19:55:29.471Z,1.10
2019-05-12T19:58:05.459Z,1.00
2019-05-12T20:00:32.937Z,1.30
2019-05-12T20:03:04.484Z,1.30
2019-05-12T20:05:35.819Z,1.20
2019-05-12T20:08:06.013Z,1.23
2019-05-12T20:10:43.567Z,1.23
2019-05-12T20:13:07.630Z,1.40
2019-05-12T20:15:41.051Z,1.33
2019-05-12T20:18:11.049Z,1.10
2019-05-12T20:20:44.748Z,2.53
2019-05-12T20:23:15.661Z,1.40
2019-05-12T20:25:47.292Z,1.20
2019-05-12T20:28:17.312Z,1.20
2019-05-12T20:30:54.383Z,1.00
2019-05-12T20:33:20.054Z,1.20
2019-05-12T20:35:50.090Z,1.20
2019-05-12T20:38:25.376Z,1.30
2019-05-12T20:40:54.236Z,1.10
2019-05-12T20:43:32.408Z,1.10
2019-05-12T20:45:57.775Z,1.70
2019-05-12T20:48:31.144Z,1.40
2019-05-12T20:50:59.919Z,1.10
2019-05-12T20:53:33.407Z,1.50
2019-05-12T20:56:03.999Z,1.03
2019-05-12T20:58:41.015Z,1.20
2019-05-12T21:01:09.812Z,1.20
2019-05-12T21:03:46.255Z,0.93
2019-05-12T21:06:19.111Z,1.17
2019-05-12T21:08:53.508Z,1.47
2019-05-12T21:11:25.298Z,1.30
2019-05-12T21:14:00.902Z,1.10
2019-05-12T21:16:34.613Z,1.40
2019-05-12T21:19:07.435Z,1.30
2019-05-12T21:21:34.141Z,1.47
2019-05-12T21:24:05.042Z,1.43
2019-05-12T21:26:37.958Z,1.20
2019-05-12T21:29:08.316Z,1.33
2019-05-12T21:31:38.303Z,1.47
2019-05-12T21:34:13.076Z,1.40
2019-05-12T21:36:40.981Z,1.80
2019-05-12T21:39:10.927Z,1.47
2019-05-12T21:41:50.524Z,1.70
2019-05-12T21:44:14.256Z,1.70
2019-05-12T21:46:57.397Z,1.33
2019-05-12T21:49:15.894Z,1.20
2019-05-12T21:51:50.483Z,1.70
2019-05-12T21:54:17.609Z,1.40
2019-05-12T21:56:49.459Z,1.50
2019-05-12T21:59:19.265Z,1.40
2019-05-12T22:01:49.419Z,1.40
2019-05-12T22:04:19.642Z,1.33
2019-05-12T22:06:51.340Z,1.20
2019-05-12T22:09:23.855Z,1.10
2019-05-12T22:11:54.191Z,1.33
2019-05-12T22:14:24.538Z,1.20
2019-05-12T22:16:56.053Z,1.57
2019-05-12T22:19:30.860Z,1.30
2019-05-12T22:22:00.784Z,1.47
2019-05-12T22:24:37.299Z,1.60
2019-05-12T22:27:04.844Z,1.83
2019-05-12T22:29:34.245Z,1.70
2019-05-12T22:32:05.152Z,1.57
2019-05-12T22:34:41.587Z,1.50
2019-05-12T22:37:07.263Z,1.30
2019-05-12T22:39:37.352Z,1.33
2019-05-12T22:42:11.522Z,1.30
2019-05-12T22:44:39.021Z,1.40
2019-05-12T22:47:13.017Z,1.70
2019-05-12T22:49:40.577Z,1.50
2019-05-12T22:52:10.588Z,1.50
2019-05-12T22:54:46.071Z,1.60
2019-05-12T22:57:13.560Z,1.60
2019-05-12T22:59:44.849Z,1.73
2019-05-12T23:02:24.562Z,1.70
2019-05-12T23:04:47.467Z,1.40
2019-05-12T23:07:19.047Z,1.30
2019-05-12T23:09:49.031Z,1.23
2019-05-12T23:12:20.262Z,1.33
2019-05-12T23:14:56.842Z,1.60
2019-05-12T23:17:24.630Z,1.60
2019-05-12T23:19:55.953Z,1.50
2019-05-12T23:22:29.461Z,1.27
2019-05-12T23:24:57.692Z,1.73
2019-05-12T23:27:29.931Z,1.50
2019-05-12T23:30:01.573Z,1.60
2019-05-12T23:32:30.715Z,1.60
2019-05-12T23:35:00.583Z,1.50
2019-05-12T23:37:36.153Z,1.43
2019-05-12T23:40:04.193Z,1.77
2019-05-12T23:42:34.291Z,1.47
2019-05-12T23:45:05.956Z,1.40
2019-05-12T23:47:35.813Z,1.60
2019-05-12T23:50:07.559Z,1.50
2019-05-12T23:52:37.459Z,1.20
2019-05-12T23:55:08.511Z,1.40
2019-05-12T23:57:38.510Z,1.27
